createdAt,value
2019-05-23T00:01:04.991Z,8.67
2019-05-23T00:03:41.120Z,7.03
2019-05-23T00:06:11.020Z,8.37
2019-05-23T00:08:40.762Z,11.40
2019-05-23T00:11:32.874Z,7.60
2019-05-23T00:14:09.888Z,7.47
2019-05-23T00:16:38.665Z,9.70
2019-05-23T00:19:07.776Z,8.40
2019-05-23T00:21:37.237Z,8.37
2019-05-23T00:24:05.453Z,7.70
2019-05-23T00:26:34.503Z,8.67
2019-05-23T00:29:09.906Z,12.03
2019-05-23T00:31:35.220Z,7.78
2019-05-23T00:34:04.728Z,7.37
2019-05-23T00:36:34.653Z,12.17
2019-05-23T00:39:04.555Z,8.33
2019-05-23T00:41:32.889Z,7.40
2019-05-23T00:44:01.599Z,9.23
2019-05-23T00:46:29.955Z,7.07
2019-05-23T00:48:58.185Z,7.00
2019-05-23T00:51:26.911Z,8.10
2019-05-23T00:53:56.292Z,7.33
2019-05-23T00:56:24.714Z,7.93
2019-05-23T00:58:54.089Z,8.03
2019-05-23T01:01:22.497Z,6.97
2019-05-23T01:03:52.226Z,18.83
2019-05-23T01:06:21.092Z,8.83
2019-05-23T01:08:50.194Z,8.17
2019-05-23T01:11:19.495Z,6.13
2019-05-23T01:13:47.830Z,6.77
2019-05-23T01:16:16.841Z,7.20
2019-05-23T01:18:45.238Z,9.10
2019-05-23T01:21:17.646Z,7.50
2019-05-23T01:23:50.983Z,6.47
2019-05-23T01:26:19.537Z,5.77
2019-05-23T01:28:48.090Z,7.37
2019-05-23T01:31:17.961Z,9.23
2019-05-23T01:33:46.589Z,7.00
2019-05-23T01:36:15.212Z,9.53
2019-05-23T01:38:43.930Z,6.90
2019-05-23T01:41:12.734Z,7.77
2019-05-23T01:43:41.279Z,7.27
2019-05-23T01:46:10.446Z,10.37
2019-05-23T01:48:38.750Z,7.57
2019-05-23T01:51:07.993Z,9.07
2019-05-23T01:53:37.223Z,8.17
2019-05-23T01:56:05.818Z,9.07
2019-05-23T01:58:34.910Z,9.00
2019-05-23T02:01:04.210Z,6.97
2019-05-23T02:03:32.536Z,7.23
2019-05-23T02:06:01.633Z,7.20
2019-05-23T02:08:30.167Z,7.50
2019-05-23T02:10:58.687Z,7.47
2019-05-23T02:13:27.370Z,8.07
2019-05-23T02:15:56.194Z,8.23
2019-05-23T02:18:25.370Z,10.03
2019-05-23T02:23:31.892Z,10.20
2019-05-23T02:26:00.166Z,10.67
2019-05-23T02:28:29.994Z,10.23
2019-05-23T02:30:58.420Z,7.67
2019-05-23T02:33:26.633Z,7.27
2019-05-23T02:35:54.940Z,7.07
2019-05-23T02:38:24.970Z,10.73
2019-05-23T02:41:11.115Z,25.37
2019-05-23T02:43:41.064Z,8.77
2019-05-23T02:46:10.959Z,8.93
2019-05-23T02:48:43.302Z,9.87
2019-05-23T02:51:26.143Z,11.17
2019-05-23T02:53:54.371Z,11.80
2019-05-23T02:56:22.652Z,17.43
2019-05-23T02:59:07.675Z,15.43
2019-05-23T03:02:14.078Z,11.23
2019-05-23T03:04:43.078Z,15.53
2019-05-23T03:07:11.340Z,10.47
2019-05-23T03:09:39.842Z,16.53
2019-05-23T03:12:09.119Z,9.40
2019-05-23T03:14:38.021Z,10.87
2019-05-23T03:17:08.119Z,10.63
2019-05-23T03:19:42.761Z,14.45
2019-05-23T03:22:35.971Z,23.73
2019-05-23T03:25:09.227Z,9.67
2019-05-23T03:27:40.744Z,10.10
2019-05-23T03:30:12.162Z,10.10
2019-05-23T03:32:44.745Z,8.03
2019-05-23T03:35:31.170Z,9.03
2019-05-23T03:38:00.151Z,8.50
2019-05-23T03:40:28.385Z,10.53
2019-05-23T03:42:57.408Z,8.13
2019-05-23T03:45:27.281Z,6.37
2019-05-23T03:47:55.715Z,15.53
2019-05-23T03:50:24.316Z,31.87
2019-05-23T03:52:52.814Z,9.00
2019-05-23T03:55:22.986Z,10.30
2019-05-23T03:57:52.892Z,19.95
2019-05-23T04:00:23.200Z,21.03
2019-05-23T04:02:51.494Z,9.48
2019-05-23T04:05:20.160Z,10.20
2019-05-23T04:07:48.850Z,10.47
2019-05-23T04:10:17.106Z,14.17
2019-05-23T04:12:45.737Z,24.30
2019-05-23T04:15:14.562Z,18.77
2019-05-23T04:17:42.882Z,11.93
2019-05-23T04:20:11.476Z,22.63
2019-05-23T04:22:39.752Z,34.33
2019-05-23T04:25:08.761Z,16.93
2019-05-23T04:27:37.922Z,23.83
2019-05-23T04:30:09.183Z,16.70
2019-05-23T04:32:37.866Z,11.53
2019-05-23T04:35:07.026Z,15.73
2019-05-23T04:37:36.033Z,16.17
2019-05-23T04:40:08.812Z,26.27
2019-05-23T04:42:37.048Z,12.53
2019-05-23T04:45:06.460Z,13.70
2019-05-23T04:47:35.506Z,11.80
2019-05-23T04:50:07.554Z,14.50
2019-05-23T04:52:36.149Z,15.80
2019-05-23T04:55:06.414Z,15.27
2019-05-23T04:57:35.005Z,7.55
2019-05-23T05:00:04.780Z,31.90
2019-05-23T05:02:33.387Z,12.77
2019-05-23T05:05:02.015Z,11.20
2019-05-23T05:07:30.402Z,11.47
2019-05-23T05:09:58.664Z,10.37
2019-05-23T05:12:26.911Z,13.20
2019-05-23T05:14:55.424Z,9.47
2019-05-23T05:17:23.725Z,7.57
2019-05-23T05:19:51.957Z,8.00
2019-05-23T05:22:20.367Z,7.27
2019-05-23T05:24:48.643Z,9.17
2019-05-23T05:27:17.311Z,6.33
2019-05-23T05:29:45.583Z,7.37
2019-05-23T05:32:15.277Z,9.13
2019-05-23T05:34:43.506Z,8.60
2019-05-23T05:37:11.813Z,9.10
2019-05-23T05:39:40.515Z,7.73
2019-05-23T05:42:09.256Z,8.73
2019-05-23T05:44:39.113Z,12.20
2019-05-23T05:47:09.011Z,9.80
2019-05-23T05:49:37.507Z,8.37
2019-05-23T05:52:07.347Z,10.43
2019-05-23T05:54:36.536Z,8.93
2019-05-23T05:57:05.932Z,8.70
2019-05-23T05:59:34.346Z,12.23
2019-05-23T06:02:03.681Z,11.27
2019-05-23T06:04:32.443Z,9.87
2019-05-23T06:07:18.562Z,10.40
2019-05-23T06:09:48.452Z,13.93
2019-05-23T06:12:16.704Z,10.73
2019-05-23T06:14:46.651Z,11.27
2019-05-23T06:17:17.016Z,10.43
2019-05-23T06:19:45.251Z,10.63
2019-05-23T06:22:13.598Z,11.68
2019-05-23T06:24:48.909Z,12.13
2019-05-23T06:27:13.647Z,10.10
2019-05-23T06:29:41.869Z,10.03
2019-05-23T06:32:11.835Z,9.95
2019-05-23T06:34:40.251Z,12.25
2019-05-23T06:37:09.146Z,12.18
2019-05-23T06:39:38.119Z,12.55
2019-05-23T06:42:07.599Z,14.83
2019-05-23T06:44:37.273Z,12.88
2019-05-23T06:47:07.090Z,13.90
2019-05-23T06:49:35.533Z,12.50
2019-05-23T06:52:04.038Z,12.20
2019-05-23T06:54:32.642Z,14.43
2019-05-23T06:57:00.932Z,11.83
2019-05-23T06:59:29.244Z,13.05
2019-05-23T07:01:57.804Z,13.22
2019-05-23T07:04:26.540Z,13.93
2019-05-23T07:06:54.935Z,16.62
2019-05-23T07:09:23.198Z,14.47
2019-05-23T07:11:52.655Z,14.53
2019-05-23T07:14:20.926Z,15.23
2019-05-23T07:16:50.380Z,13.83
2019-05-23T07:19:18.978Z,13.45
2019-05-23T07:21:47.324Z,14.58
2019-05-23T07:24:15.643Z,16.05
2019-05-23T07:26:44.357Z,15.15
2019-05-23T07:29:12.949Z,15.00
2019-05-23T07:31:41.270Z,14.78
2019-05-23T07:34:09.540Z,16.10
2019-05-23T07:36:39.082Z,16.25
2019-05-23T07:39:11.500Z,18.85
2019-05-23T07:41:39.689Z,16.30
2019-05-23T07:44:08.781Z,16.48
2019-05-23T07:46:37.058Z,15.68
2019-05-23T07:49:05.381Z,15.50
2019-05-23T07:51:33.712Z,17.12
2019-05-23T07:54:03.633Z,14.05
2019-05-23T07:56:33.609Z,12.50
2019-05-23T07:59:01.845Z,11.07
2019-05-23T08:01:32.131Z,13.13
2019-05-23T08:04:19.306Z,11.08
2019-05-23T08:06:30.348Z,13.07
2019-05-23T08:08:58.671Z,12.33
2019-05-23T08:11:27.206Z,10.93
2019-05-23T08:13:55.935Z,10.48
2019-05-23T08:16:24.256Z,8.00
2019-05-23T08:18:52.566Z,10.80
2019-05-23T08:21:21.109Z,8.75
2019-05-23T08:23:49.399Z,8.83
2019-05-23T08:26:19.298Z,8.28
2019-05-23T08:29:12.480Z,7.97
2019-05-23T08:31:17.937Z,8.75
2019-05-23T08:33:46.219Z,11.22
2019-05-23T08:36:15.237Z,8.85
2019-05-23T08:38:43.745Z,10.90
2019-05-23T08:41:12.087Z,7.28
2019-05-23T08:43:40.376Z,9.10
2019-05-23T08:46:08.844Z,11.22
2019-05-23T08:48:37.137Z,8.00
2019-05-23T08:51:06.188Z,7.72
2019-05-23T08:53:34.537Z,7.70
2019-05-23T08:56:05.078Z,8.18
2019-05-23T08:58:33.078Z,9.08
2019-05-23T09:01:02.504Z,7.78
2019-05-23T09:03:30.712Z,8.88
2019-05-23T09:05:59.816Z,6.58
2019-05-23T09:08:29.546Z,7.55
2019-05-23T09:10:57.772Z,8.63
2019-05-23T09:13:26.044Z,7.85
2019-05-23T09:15:54.340Z,6.42
2019-05-23T09:18:22.598Z,7.90
2019-05-23T09:20:51.226Z,9.60
2019-05-23T09:23:19.617Z,6.75
2019-05-23T09:25:47.854Z,5.67
2019-05-23T09:28:17.076Z,6.05
2019-05-23T09:30:45.316Z,5.25
2019-05-23T09:33:13.939Z,7.05
2019-05-23T09:35:42.196Z,5.50
2019-05-23T09:38:10.450Z,5.65
2019-05-23T09:40:38.714Z,6.70
2019-05-23T09:43:07.790Z,5.58
2019-05-23T09:45:36.042Z,6.20
2019-05-23T09:48:04.293Z,7.55
2019-05-23T09:50:33.087Z,4.97
2019-05-23T09:53:01.324Z,4.62
2019-05-23T09:55:30.352Z,5.22
2019-05-23T09:57:58.592Z,4.20
2019-05-23T10:00:28.222Z,4.83
2019-05-23T10:02:56.737Z,4.58
2019-05-23T10:05:42.093Z,5.37
2019-05-23T10:07:54.969Z,4.33
2019-05-23T10:10:23.468Z,5.67
2019-05-23T10:12:51.715Z,5.80
2019-05-23T10:15:39.918Z,6.72
2019-05-23T10:18:10.032Z,6.12
2019-05-23T10:20:39.245Z,9.33
2019-05-23T10:23:07.551Z,5.17
2019-05-23T10:25:35.825Z,8.23
2019-05-23T10:28:04.996Z,4.83
2019-05-23T10:30:33.245Z,5.15
2019-05-23T10:33:01.483Z,6.00
2019-05-23T10:35:30.795Z,5.25
2019-05-23T10:37:59.047Z,6.28
2019-05-23T10:40:27.359Z,4.37
2019-05-23T10:42:55.612Z,6.78
2019-05-23T10:45:23.869Z,7.35
2019-05-23T10:47:52.112Z,6.65
2019-05-23T10:50:20.377Z,5.90
2019-05-23T10:52:48.610Z,6.28
2019-05-23T10:55:16.877Z,8.23
2019-05-23T10:57:45.178Z,6.37
2019-05-23T11:00:15.073Z,5.00
2019-05-23T11:02:43.612Z,7.80
2019-05-23T11:05:14.070Z,5.08
2019-05-23T11:07:42.676Z,6.12
2019-05-23T11:10:11.715Z,4.17
2019-05-23T11:12:40.593Z,6.37
2019-05-23T11:15:08.911Z,4.87
2019-05-23T11:17:37.139Z,5.25
2019-05-23T11:20:08.190Z,6.08
2019-05-23T11:22:36.447Z,6.80
2019-05-23T11:25:07.067Z,4.95
2019-05-23T11:27:35.326Z,6.53
2019-05-23T11:30:05.204Z,6.55
2019-05-23T11:32:33.467Z,5.37
2019-05-23T11:35:01.718Z,6.40
2019-05-23T11:37:29.965Z,6.10
2019-05-23T11:39:58.214Z,8.35
2019-05-23T11:42:26.446Z,5.58
2019-05-23T11:44:54.680Z,5.03
2019-05-23T11:47:23.426Z,6.15
2019-05-23T11:49:51.808Z,6.83
2019-05-23T11:52:20.337Z,4.40
2019-05-23T11:54:49.047Z,6.67
2019-05-23T11:57:17.290Z,8.15
2019-05-23T11:59:45.702Z,6.75
2019-05-23T12:02:15.601Z,6.37
2019-05-23T12:04:43.834Z,5.72
2019-05-23T12:07:19.964Z,5.20
2019-05-23T12:09:48.186Z,5.42
2019-05-23T12:12:16.433Z,4.85
2019-05-23T12:14:44.657Z,4.00
2019-05-23T12:17:12.996Z,5.12
2019-05-23T12:19:41.246Z,4.28
2019-05-23T12:22:09.750Z,4.08
2019-05-23T12:24:38.001Z,5.87
2019-05-23T12:27:06.304Z,5.35
2019-05-23T12:29:34.577Z,3.70
2019-05-23T12:32:04.764Z,6.83
2019-05-23T12:34:33.024Z,4.40
2019-05-23T12:37:18.342Z,6.00
2019-05-23T12:39:31.552Z,5.92
2019-05-23T12:41:59.834Z,4.47
2019-05-23T12:44:28.461Z,3.62
2019-05-23T12:46:56.817Z,3.02
2019-05-23T12:49:29.497Z,3.02
2019-05-23T12:51:58.229Z,5.00
2019-05-23T12:54:26.656Z,4.55
2019-05-23T12:56:55.066Z,3.08
2019-05-23T12:59:23.803Z,4.58
2019-05-23T13:01:53.946Z,3.12
2019-05-23T13:04:22.873Z,3.37
2019-05-23T13:06:51.230Z,3.70
2019-05-23T13:09:19.502Z,3.95
2019-05-23T13:11:47.827Z,4.33
2019-05-23T13:14:16.079Z,3.52
2019-05-23T13:16:44.311Z,4.50
2019-05-23T13:19:13.087Z,2.67
2019-05-23T13:21:41.486Z,4.28
2019-05-23T13:24:09.736Z,3.65
2019-05-23T13:26:38.053Z,5.15
2019-05-23T13:29:06.298Z,5.45
2019-05-23T13:31:34.537Z,2.75
2019-05-23T13:34:02.799Z,4.85
2019-05-23T13:36:31.040Z,4.42
2019-05-23T13:38:59.353Z,2.77
2019-05-23T13:41:27.600Z,3.87
2019-05-23T13:43:55.848Z,2.70
2019-05-23T13:46:24.178Z,2.85
2019-05-23T13:48:52.410Z,2.95
2019-05-23T13:51:20.677Z,3.47
2019-05-23T13:53:48.975Z,4.20
2019-05-23T13:56:17.248Z,3.40
2019-05-23T13:58:45.962Z,3.42
2019-05-23T14:01:14.232Z,3.62
2019-05-23T14:03:42.543Z,2.83
2019-05-23T14:06:11.384Z,3.98
2019-05-23T14:08:39.625Z,3.67
2019-05-23T14:11:08.348Z,6.28
2019-05-23T14:13:36.693Z,4.95
2019-05-23T14:16:05.655Z,3.20
2019-05-23T14:18:35.539Z,3.10
2019-05-23T14:21:04.193Z,2.67
2019-05-23T14:23:33.865Z,2.65
2019-05-23T14:26:02.548Z,6.90
2019-05-23T14:28:31.165Z,3.02
2019-05-23T14:31:15.898Z,2.47
2019-05-23T14:33:48.727Z,5.17
2019-05-23T14:36:35.009Z,2.67
2019-05-23T14:39:06.510Z,4.05
2019-05-23T14:41:45.284Z,2.55
2019-05-23T14:44:09.377Z,3.02
2019-05-23T14:46:39.330Z,4.22
2019-05-23T14:49:09.244Z,2.55
2019-05-23T14:51:42.047Z,2.80
2019-05-23T14:54:18.147Z,1.40
2019-05-23T14:56:46.673Z,3.15
2019-05-23T14:59:15.166Z,3.30
2019-05-23T15:01:44.285Z,2.35
2019-05-23T15:04:12.782Z,3.20
2019-05-23T15:06:41.039Z,3.42
2019-05-23T15:09:09.635Z,3.35
2019-05-23T15:11:38.790Z,2.67
2019-05-23T15:14:07.080Z,4.58
2019-05-23T15:16:35.390Z,2.15
2019-05-23T15:19:03.722Z,8.03
2019-05-23T15:21:32.031Z,3.52
2019-05-23T15:24:00.306Z,2.12
2019-05-23T15:26:28.978Z,2.37
2019-05-23T15:28:57.224Z,6.22
2019-05-23T15:31:25.634Z,5.75
2019-05-23T15:33:53.883Z,2.77
2019-05-23T15:36:22.141Z,3.55
2019-05-23T15:39:07.596Z,1.87
2019-05-23T15:41:20.381Z,2.25
2019-05-23T15:43:48.797Z,2.85
2019-05-23T15:46:17.049Z,2.95
2019-05-23T15:48:45.337Z,2.77
2019-05-23T15:51:15.225Z,1.95
2019-05-23T15:54:03.479Z,3.10
2019-05-23T15:56:33.410Z,3.30
2019-05-23T15:59:19.621Z,2.47
2019-05-23T16:01:58.397Z,2.08
2019-05-23T16:04:27.832Z,2.30
2019-05-23T16:06:56.322Z,2.85
2019-05-23T16:09:30.101Z,2.55
2019-05-23T16:11:55.206Z,3.85
2019-05-23T16:14:23.583Z,2.35
2019-05-23T16:16:56.219Z,3.20
2019-05-23T16:21:50.070Z,2.70
2019-05-23T16:24:18.684Z,2.52
2019-05-23T16:26:47.306Z,3.22
2019-05-23T16:29:16.316Z,2.42
2019-05-23T16:31:44.631Z,3.35
2019-05-23T16:34:12.879Z,4.37
2019-05-23T16:36:41.156Z,2.77
2019-05-23T16:39:09.500Z,3.80
2019-05-23T16:41:37.836Z,1.45
2019-05-23T16:44:06.133Z,1.95
2019-05-23T16:46:34.399Z,3.42
2019-05-23T16:49:02.641Z,2.12
2019-05-23T16:51:30.907Z,3.42
2019-05-23T16:53:59.150Z,2.92
2019-05-23T16:56:29.057Z,2.40
2019-05-23T16:59:15.429Z,4.92
2019-05-23T17:02:06.368Z,1.20
2019-05-23T17:04:48.901Z,3.40
2019-05-23T17:07:18.827Z,1.87
2019-05-23T17:10:08.153Z,3.42
2019-05-23T17:12:41.436Z,2.80
2019-05-23T17:15:14.192Z,3.55
2019-05-23T17:18:03.360Z,4.42
2019-05-23T17:20:44.457Z,6.35
2019-05-23T17:23:14.419Z,1.98
2019-05-23T17:25:47.218Z,1.32
2019-05-23T17:28:23.292Z,3.17
2019-05-23T17:30:56.153Z,3.15
2019-05-23T17:33:24.925Z,2.20
2019-05-23T17:35:53.182Z,5.30
2019-05-23T17:38:22.119Z,1.00
2019-05-23T17:40:50.773Z,3.55
2019-05-23T17:43:19.031Z,1.80
2019-05-23T17:45:47.557Z,1.27
2019-05-23T17:48:15.892Z,1.72
2019-05-23T17:50:44.220Z,3.15
2019-05-23T17:53:12.441Z,6.00
2019-05-23T17:55:40.785Z,3.10
2019-05-23T17:58:09.021Z,3.02
2019-05-23T18:00:41.731Z,2.45
2019-05-23T18:03:09.999Z,3.72
2019-05-23T18:05:38.408Z,6.35
2019-05-23T18:08:08.085Z,3.27
2019-05-23T18:10:44.620Z,8.73
2019-05-23T18:15:35.933Z,1.67
2019-05-23T18:18:04.500Z,3.27
2019-05-23T18:20:32.949Z,1.92
2019-05-23T18:23:01.315Z,2.45
2019-05-23T18:25:29.858Z,3.12
2019-05-23T18:27:58.185Z,3.20
2019-05-23T18:30:28.062Z,2.95
2019-05-23T18:32:56.994Z,3.02
2019-05-23T18:35:26.517Z,4.00
2019-05-23T18:37:54.824Z,4.37
2019-05-23T18:40:23.187Z,4.42
2019-05-23T18:42:51.465Z,2.87
2019-05-23T18:45:21.150Z,5.50
2019-05-23T18:47:49.394Z,6.25
2019-05-23T18:50:18.834Z,2.90
2019-05-23T18:52:47.076Z,3.77
2019-05-23T18:55:15.351Z,2.50
2019-05-23T18:57:43.618Z,4.37
2019-05-23T19:00:12.022Z,4.30
2019-05-23T19:02:40.634Z,3.52
2019-05-23T19:05:10.251Z,4.22
2019-05-23T19:07:39.136Z,9.80
2019-05-23T19:10:08.492Z,3.22
2019-05-23T19:12:36.905Z,4.75
2019-05-23T19:15:06.311Z,3.85
2019-05-23T19:17:35.116Z,4.20
2019-05-23T19:20:05.592Z,3.40
2019-05-23T19:22:33.867Z,5.00
2019-05-23T19:25:04.192Z,4.20
2019-05-23T19:27:32.817Z,2.90
2019-05-23T19:30:01.083Z,2.95
2019-05-23T19:32:29.473Z,3.50
2019-05-23T19:34:57.721Z,2.72
2019-05-23T19:37:26.186Z,2.40
2019-05-23T19:39:54.710Z,2.55
2019-05-23T19:42:23.363Z,3.47
2019-05-23T19:44:51.588Z,4.53
2019-05-23T19:47:19.846Z,3.45
2019-05-23T19:49:48.149Z,3.08
2019-05-23T19:52:16.621Z,3.83
2019-05-23T19:54:44.928Z,4.12
2019-05-23T19:57:13.228Z,4.30
2019-05-23T19:59:41.501Z,2.72
2019-05-23T20:02:11.680Z,5.03
2019-05-23T20:04:41.666Z,3.27
2019-05-23T20:07:15.183Z,4.65
2019-05-23T20:09:41.646Z,3.58
2019-05-23T20:12:09.934Z,5.00
2019-05-23T20:14:38.199Z,2.40
2019-05-23T20:17:06.457Z,2.70
2019-05-23T20:19:34.789Z,4.10
2019-05-23T20:22:03.064Z,7.03
2019-05-23T20:24:31.479Z,2.70
2019-05-23T20:26:59.717Z,5.75
2019-05-23T20:29:28.044Z,2.77
2019-05-23T20:31:56.561Z,3.47
2019-05-23T20:34:25.189Z,4.85
2019-05-23T20:36:53.445Z,2.17
2019-05-23T20:39:22.675Z,3.35
2019-05-23T20:41:51.183Z,3.52
2019-05-23T20:44:19.449Z,6.37
2019-05-23T20:46:47.697Z,5.30
2019-05-23T20:49:15.954Z,3.27
2019-05-23T20:51:44.266Z,5.72
2019-05-23T20:54:12.594Z,3.58
2019-05-23T20:56:40.825Z,3.37
2019-05-23T20:59:09.563Z,2.50
2019-05-23T21:01:39.442Z,5.60
2019-05-23T21:04:07.681Z,3.17
2019-05-23T21:06:35.925Z,2.30
2019-05-23T21:09:06.643Z,2.95
2019-05-23T21:11:34.971Z,3.83
2019-05-23T21:14:03.229Z,2.25
2019-05-23T21:16:31.482Z,3.40
2019-05-23T21:18:59.787Z,4.62
2019-05-23T21:21:28.093Z,4.00
2019-05-23T21:23:57.132Z,4.62
2019-05-23T21:26:25.635Z,3.52
2019-05-23T21:28:53.885Z,3.87
2019-05-23T21:31:23.210Z,2.72
2019-05-23T21:33:51.510Z,2.52
2019-05-23T21:36:19.781Z,3.33
2019-05-23T21:38:48.030Z,5.12
2019-05-23T21:41:16.355Z,2.95
2019-05-23T21:43:46.229Z,2.42
2019-05-23T21:46:14.472Z,5.65
2019-05-23T21:48:42.710Z,3.25
2019-05-23T21:51:11.016Z,2.40
2019-05-23T21:53:39.290Z,6.37
2019-05-23T21:56:07.591Z,2.47
2019-05-23T21:58:35.869Z,3.85
2019-05-23T22:01:06.540Z,4.35
2019-05-23T22:03:40.319Z,4.40
2019-05-23T22:06:11.681Z,1.87
2019-05-23T22:08:39.949Z,2.50
2019-05-23T22:11:08.177Z,5.62
2019-05-23T22:13:36.437Z,2.80
2019-05-23T22:16:04.847Z,5.08
2019-05-23T22:18:33.082Z,5.97
2019-05-23T22:21:01.311Z,3.00
2019-05-23T22:23:29.657Z,3.47
2019-05-23T22:25:57.879Z,3.12
2019-05-23T22:28:26.205Z,4.45
2019-05-23T22:30:54.431Z,3.10
2019-05-23T22:33:24.338Z,6.05
2019-05-23T22:35:52.582Z,3.80
2019-05-23T22:38:20.821Z,3.45
2019-05-23T22:40:49.099Z,2.62
2019-05-23T22:43:21.106Z,2.30
2019-05-23T22:45:47.558Z,3.87
2019-05-23T22:48:15.922Z,3.60
2019-05-23T22:50:44.199Z,3.00
2019-05-23T22:53:12.443Z,3.58
2019-05-23T22:55:40.735Z,2.87
2019-05-23T22:58:09.009Z,3.33
2019-05-23T23:00:47.895Z,4.28
2019-05-23T23:03:16.165Z,2.72
2019-05-23T23:05:44.469Z,3.55
2019-05-23T23:08:12.740Z,4.87
2019-05-23T23:10:41.050Z,3.25
2019-05-23T23:13:09.321Z,3.12
2019-05-23T23:15:37.618Z,3.60
2019-05-23T23:18:06.239Z,2.80
2019-05-23T23:20:34.465Z,3.25
2019-05-23T23:23:02.700Z,3.80
2019-05-23T23:25:31.528Z,2.70
2019-05-23T23:27:59.766Z,5.92
2019-05-23T23:30:29.656Z,3.20
2019-05-23T23:32:57.963Z,2.98
2019-05-23T23:35:26.244Z,2.52
2019-05-23T23:37:54.463Z,3.92
2019-05-23T23:40:22.750Z,3.15
2019-05-23T23:42:51.050Z,5.75
2019-05-23T23:45:37.386Z,4.45
2019-05-23T23:48:23.700Z,3.62
2019-05-23T23:51:10.368Z,3.10
2019-05-23T23:53:56.814Z,4.03
2019-05-23T23:56:43.022Z,2.85
2019-05-23T23:59:10.600Z,4.60
